»·PEaware :: N228Q KGPI-KGTF

N228Q :: KGPI-KGTF

FLIGHT INFORMATION

Flight Status: Arrived
Operator: Privately registered:
United States
More flights under this callsign
Pilot: Chuck O. (4337)
Aircraft: BEECH AIRCRAFT BONANZA
(BE35)
More flights by this aircraft type
Origin: KGPI Glacier Park Intl
United States
Destination: KGTF Great Falls Intl
United States
More flights between these airports :: More routes between these airports
Route: FCA V536 GTF
File this flight plan on PilotEdge
Remarks:
Altitude:
(Current/Filed)
11,500ft
Speed:
(Current/Filed)
160kts
Departed: 03-Oct-20 04:31 PM
Arrived: 03-Oct-20 05:30 PM
Distance/Time
Traveled:
127nm/0:59
Distance/Time
To Go:
Arrived

Flight Plot

Page will automatically refresh every two minutes.

Flight plan parsing failed; only flown route is shown


Map Options




Map Legend


Flown Route
Filed Route
Departure Airport
Arrival Airport
Navaid (VOR, NDB)
Fix

Horizontal Profiles

Position Reports

Time Latitude Longitude Heading Altitude Ground
Speed
03-Oct-20 16:21 48.311302 -114.250978 329 2972ft 0kts
03-Oct-20 16:22 48.311306 -114.250982 329 2972ft 0kts
03-Oct-20 16:23 48.311309 -114.250985 329 2972ft 0kts
03-Oct-20 16:24 48.311663 -114.252096 227 2972ft 13kts
03-Oct-20 16:25 48.304353 -114.259813 213 2973ft 39kts
03-Oct-20 16:26 48.298436 -114.266332 268 2972ft 0kts
03-Oct-20 16:27 48.298436 -114.266339 268 2972ft 0kts
03-Oct-20 16:28 48.298436 -114.266345 268 2972ft 0kts
03-Oct-20 16:29 48.298436 -114.266352 268 2972ft 0kts
03-Oct-20 16:30 48.305567 -114.260649 36 2973ft 96kts
03-Oct-20 16:31 48.332863 -114.242135 5 4026ft 109kts
03-Oct-20 16:32 48.336235 -114.267442 162 4989ft 108kts
03-Oct-20 16:33 48.308125 -114.245683 157 5904ft 118kts
03-Oct-20 16:34 48.278267 -114.224128 154 6805ft 120kts
03-Oct-20 16:35 48.248014 -114.201379 154 7657ft 122kts
03-Oct-20 16:36 48.217594 -114.178227 148 8444ft 123kts
03-Oct-20 16:37 48.202602 -114.132225 112 9148ft 125kts
03-Oct-20 16:38 48.189790 -114.082680 113 9785ft 128kts
03-Oct-20 16:39 48.176602 -114.032293 113 10341ft 131kts
03-Oct-20 16:40 48.163093 -113.980835 113 10884ft 133kts
03-Oct-20 16:41 48.149406 -113.928825 113 11374ft 134kts
03-Oct-20 16:42 48.135232 -113.875121 113 11634ft 151kts
03-Oct-20 16:43 48.118191 -113.810728 113 11517ft 171kts
03-Oct-20 16:44 48.100451 -113.743800 113 11515ft 174kts
03-Oct-20 16:45 48.082487 -113.676221 113 11519ft 175kts
03-Oct-20 16:46 48.064379 -113.608299 113 11523ft 175kts
03-Oct-20 16:47 48.046315 -113.540750 113 11525ft 175kts
03-Oct-20 16:48 48.028226 -113.473292 113 11519ft 175kts
03-Oct-20 16:49 48.010096 -113.405877 113 11525ft 174kts
03-Oct-20 16:50 47.991959 -113.338627 113 11527ft 175kts
03-Oct-20 16:51 47.973697 -113.271111 113 11535ft 175kts
03-Oct-20 16:52 47.955393 -113.203630 113 11530ft 176kts
03-Oct-20 16:53 47.936950 -113.135836 113 11535ft 175kts
03-Oct-20 16:54 47.918590 -113.068550 113 11529ft 175kts
03-Oct-20 16:55 47.900203 -113.001346 113 11532ft 175kts
03-Oct-20 16:56 47.881735 -112.934037 113 11533ft 175kts
03-Oct-20 16:57 47.863291 -112.866999 113 11534ft 175kts
03-Oct-20 16:58 47.844798 -112.799973 113 11542ft 175kts
03-Oct-20 17:00 47.826269 -112.733005 113 11542ft 175kts
03-Oct-20 17:01 47.807636 -112.665851 113 11545ft 174kts
03-Oct-20 17:02 47.789058 -112.599084 113 11539ft 174kts
03-Oct-20 17:03 47.770488 -112.532535 113 11547ft 174kts
03-Oct-20 17:04 47.751789 -112.465708 113 11533ft 174kts
03-Oct-20 17:05 47.733104 -112.399120 113 11535ft 174kts
03-Oct-20 17:06 47.714381 -112.332583 113 11531ft 174kts
03-Oct-20 17:07 47.695566 -112.265902 113 11524ft 175kts
03-Oct-20 17:08 47.676773 -112.199484 113 11526ft 174kts
03-Oct-20 17:09 47.643729 -112.155849 173 11526ft 168kts
03-Oct-20 17:10 47.597272 -112.146831 175 11523ft 168kts
03-Oct-20 17:11 47.550837 -112.137696 175 11523ft 168kts
03-Oct-20 17:12 47.504478 -112.128507 175 11522ft 168kts
03-Oct-20 17:13 47.458167 -112.119326 175 11522ft 168kts
03-Oct-20 17:14 47.411160 -112.110043 174 11269ft 181kts
03-Oct-20 17:15 47.358547 -112.099658 174 10266ft 192kts
03-Oct-20 17:16 47.317479 -112.060344 103 9440ft 186kts
03-Oct-20 17:17 47.312984 -111.988396 96 9399ft 169kts
03-Oct-20 17:17 47.309670 -111.931501 96 9387ft 166kts
03-Oct-20 17:18 47.305668 -111.863948 96 9390ft 165kts
03-Oct-20 17:20 47.300945 -111.785172 96 9390ft 165kts
03-Oct-20 17:20 47.297517 -111.728632 96 9249ft 170kts
03-Oct-20 17:21 47.293537 -111.655891 87 8291ft 182kts
03-Oct-20 17:22 47.321961 -111.600489 46 7923ft 165kts
03-Oct-20 17:23 47.354547 -111.552581 47 6953ft 156kts
03-Oct-20 17:24 47.384215 -111.509085 47 6106ft 146kts
03-Oct-20 17:25 47.412590 -111.467398 47 5305ft 142kts
03-Oct-20 17:26 47.438594 -111.429138 46 4572ft 120kts
03-Oct-20 17:27 47.461168 -111.395877 46 3953ft 103kts
03-Oct-20 17:28 47.477074 -111.372438 46 3680ft 41kts
03-Oct-20 17:29 47.483718 -111.362449 67 3680ft 14kts
03-Oct-20 17:30 47.485712 -111.357027 42 3680ft 15kts
03-Oct-20 17:31 47.487951 -111.353723 43 3680ft 8kts
03-Oct-20 17:32 47.487218 -111.353207 137 3680ft 0kts
03-Oct-20 17:33 47.487218 -111.353207 137 3680ft 0kts
03-Oct-20 17:34 47.487218 -111.353207 137 3680ft 0kts
03-Oct-20 17:35 47.487218 -111.353207 137 3680ft 0kts
03-Oct-20 17:36 47.487218 -111.353207 137 3680ft 0kts

Navigation Log

Ident Type
Flight plan parsing failed, navigation log unavailable